Basin, Mississippi
Current Conditions -  °F | °C
As of 2:56 AM on Friday 24 Oct 2014 (Local Time) from KMOB Reporting Station
Clear Clear  
Wind Chill: 53°   Ceiling: Unl
Heat Index: 53°   Visibility: 10mi
Dew Point: 47°   Wind: 3mph
Humidity: 80%   Direction: 360°N
Pressure: 30.06"   Gusts: NA
Location:  30.8443°N, 88.5703°W
Report Text: KMOB 240756Z AUTO 36003KT 10SM CLR 12/08 A3006 RMK AO2 SLP178 T01170083
Loading
Personal Weather Stations






























Interactive Weather Map
Tropical Storm Tracking
New forecast layout! Learn more

10-Day Weather Forecast

Advertisements
Track Severe Weather on mobile